sensor_id;sensor_type;location;lat;lon;timestamp;P1;durP1;ratioP1;P2;durP2;ratioP2
65377;SDS011;51982;51.042;13.806;2023-02-15T00:01:07;28.17;;;13.15;;
65377;SDS011;51982;51.042;13.806;2023-02-15T00:03:34;31.60;;;12.05;;
65377;SDS011;51982;51.042;13.806;2023-02-15T00:05:59;32.45;;;13.20;;
65377;SDS011;51982;51.042;13.806;2023-02-15T00:08:24;33.35;;;12.63;;
65377;SDS011;51982;51.042;13.806;2023-02-15T00:10:49;25.50;;;11.27;;
65377;SDS011;51982;51.042;13.806;2023-02-15T00:13:15;31.45;;;12.40;;
65377;SDS011;51982;51.042;13.806;2023-02-15T00:15:40;28.45;;;12.57;;
65377;SDS011;51982;51.042;13.806;2023-02-15T00:18:05;28.73;;;12.75;;
65377;SDS011;51982;51.042;13.806;2023-02-15T00:20:30;28.80;;;12.27;;
65377;SDS011;51982;51.042;13.806;2023-02-15T00:22:55;31.33;;;13.27;;
65377;SDS011;51982;51.042;13.806;2023-02-15T00:25:21;25.40;;;11.07;;
65377;SDS011;51982;51.042;13.806;2023-02-15T00:27:46;29.98;;;12.82;;
65377;SDS011;51982;51.042;13.806;2023-02-15T00:30:11;28.58;;;12.18;;
65377;SDS011;51982;51.042;13.806;2023-02-15T00:32:37;32.15;;;13.10;;
65377;SDS011;51982;51.042;13.806;2023-02-15T00:35:02;30.45;;;12.43;;
65377;SDS011;51982;51.042;13.806;2023-02-15T00:37:27;29.55;;;12.25;;
65377;SDS011;51982;51.042;13.806;2023-02-15T00:39:53;28.15;;;12.27;;
65377;SDS011;51982;51.042;13.806;2023-02-15T00:42:18;32.83;;;12.40;;
65377;SDS011;51982;51.042;13.806;2023-02-15T00:44:43;29.75;;;12.48;;
65377;SDS011;51982;51.042;13.806;2023-02-15T00:47:08;29.17;;;13.23;;
65377;SDS011;51982;51.042;13.806;2023-02-15T00:49:33;30.90;;;13.13;;
65377;SDS011;51982;51.042;13.806;2023-02-15T00:51:59;30.45;;;12.13;;
65377;SDS011;51982;51.042;13.806;2023-02-15T00:54:24;29.83;;;12.27;;
65377;SDS011;51982;51.042;13.806;2023-02-15T00:56:49;26.92;;;11.88;;
65377;SDS011;51982;51.042;13.806;2023-02-15T00:59:14;33.25;;;13.38;;
65377;SDS011;51982;51.042;13.806;2023-02-15T01:01:40;35.38;;;13.55;;
65377;SDS011;51982;51.042;13.806;2023-02-15T01:04:05;32.28;;;12.93;;
65377;SDS011;51982;51.042;13.806;2023-02-15T01:06:30;38.13;;;14.13;;
65377;SDS011;51982;51.042;13.806;2023-02-15T01:08:55;31.02;;;13.52;;
65377;SDS011;51982;51.042;13.806;2023-02-15T01:11:21;36.30;;;13.60;;
65377;SDS011;51982;51.042;13.806;2023-02-15T01:13:51;33.67;;;12.43;;
65377;SDS011;51982;51.042;13.806;2023-02-15T01:16:19;32.55;;;13.27;;
65377;SDS011;51982;51.042;13.806;2023-02-15T01:18:45;31.23;;;13.13;;
65377;SDS011;51982;51.042;13.806;2023-02-15T01:21:11;36.20;;;13.63;;
65377;SDS011;51982;51.042;13.806;2023-02-15T01:23:39;30.35;;;12.93;;
65377;SDS011;51982;51.042;13.806;2023-02-15T01:26:05;30.27;;;12.50;;
65377;SDS011;51982;51.042;13.806;2023-02-15T01:28:34;31.50;;;13.23;;
65377;SDS011;51982;51.042;13.806;2023-02-15T01:31:04;33.25;;;12.68;;
65377;SDS011;51982;51.042;13.806;2023-02-15T01:35:59;30.05;;;12.30;;
65377;SDS011;51982;51.042;13.806;2023-02-15T01:38:24;32.95;;;12.18;;
65377;SDS011;51982;51.042;13.806;2023-02-15T01:40:51;28.90;;;12.05;;
65377;SDS011;51982;51.042;13.806;2023-02-15T01:43:17;29.40;;;12.00;;
65377;SDS011;51982;51.042;13.806;2023-02-15T01:45:43;34.63;;;14.23;;
65377;SDS011;51982;51.042;13.806;2023-02-15T01:50:47;30.90;;;12.63;;
65377;SDS011;51982;51.042;13.806;2023-02-15T01:53:34;34.42;;;13.30;;
65377;SDS011;51982;51.042;13.806;2023-02-15T01:56:15;36.47;;;12.93;;
65377;SDS011;51982;51.042;13.806;2023-02-15T01:58:44;35.58;;;13.43;;
65377;SDS011;51982;51.042;13.806;2023-02-15T02:01:11;27.60;;;12.15;;
65377;SDS011;51982;51.042;13.806;2023-02-15T02:06:01;34.35;;;13.10;;
65377;SDS011;51982;51.042;13.806;2023-02-15T02:08:26;31.48;;;13.15;;
65377;SDS011;51982;51.042;13.806;2023-02-15T02:10:52;32.17;;;12.57;;
65377;SDS011;51982;51.042;13.806;2023-02-15T02:13:18;31.88;;;12.68;;
65377;SDS011;51982;51.042;13.806;2023-02-15T02:15:46;32.58;;;12.52;;
65377;SDS011;51982;51.042;13.806;2023-02-15T02:18:20;29.00;;;11.55;;
65377;SDS011;51982;51.042;13.806;2023-02-15T02:26:48;29.83;;;11.80;;
65377;SDS011;51982;51.042;13.806;2023-02-15T02:29:38;27.73;;;11.50;;
65377;SDS011;51982;51.042;13.806;2023-02-15T02:35:22;31.23;;;12.00;;
65377;SDS011;51982;51.042;13.806;2023-02-15T02:41:00;26.05;;;10.85;;
65377;SDS011;51982;51.042;13.806;2023-02-15T02:46:37;27.25;;;11.65;;
65377;SDS011;51982;51.042;13.806;2023-02-15T02:49:06;26.20;;;11.00;;
65377;SDS011;51982;51.042;13.806;2023-02-15T02:51:31;26.45;;;10.95;;
65377;SDS011;51982;51.042;13.806;2023-02-15T02:53:56;27.33;;;11.55;;
65377;SDS011;51982;51.042;13.806;2023-02-15T02:56:45;29.65;;;11.57;;
65377;SDS011;51982;51.042;13.806;2023-02-15T02:59:14;31.38;;;11.77;;
65377;SDS011;51982;51.042;13.806;2023-02-15T03:01:44;33.13;;;11.48;;
65377;SDS011;51982;51.042;13.806;2023-02-15T03:04:15;31.13;;;10.85;;
65377;SDS011;51982;51.042;13.806;2023-02-15T03:06:48;26.65;;;10.90;;
65377;SDS011;51982;51.042;13.806;2023-02-15T03:09:23;29.20;;;11.27;;
65377;SDS011;51982;51.042;13.806;2023-02-15T03:11:59;28.80;;;10.93;;
65377;SDS011;51982;51.042;13.806;2023-02-15T03:14:26;27.63;;;10.45;;
65377;SDS011;51982;51.042;13.806;2023-02-15T03:16:52;27.58;;;10.63;;
65377;SDS011;51982;51.042;13.806;2023-02-15T03:19:20;23.80;;;10.23;;
65377;SDS011;51982;51.042;13.806;2023-02-15T03:21:51;31.40;;;11.23;;
65377;SDS011;51982;51.042;13.806;2023-02-15T03:27:13;26.10;;;9.85;;
65377;SDS011;51982;51.042;13.806;2023-02-15T03:29:42;27.48;;;10.23;;
65377;SDS011;51982;51.042;13.806;2023-02-15T03:32:10;27.02;;;9.88;;
65377;SDS011;51982;51.042;13.806;2023-02-15T03:34:38;21.67;;;9.63;;
65377;SDS011;51982;51.042;13.806;2023-02-15T03:37:05;27.27;;;10.85;;
65377;SDS011;51982;51.042;13.806;2023-02-15T03:40:03;23.77;;;9.95;;
65377;SDS011;51982;51.042;13.806;2023-02-15T03:45:52;20.85;;;8.73;;
65377;SDS011;51982;51.042;13.806;2023-02-15T03:48:32;21.33;;;9.93;;
65377;SDS011;51982;51.042;13.806;2023-02-15T03:51:03;23.67;;;9.13;;
65377;SDS011;51982;51.042;13.806;2023-02-15T03:53:51;24.00;;;9.23;;
65377;SDS011;51982;51.042;13.806;2023-02-15T03:56:18;22.80;;;9.65;;
65377;SDS011;51982;51.042;13.806;2023-02-15T03:58:44;26.45;;;9.50;;
65377;SDS011;51982;51.042;13.806;2023-02-15T04:01:38;25.33;;;9.27;;
65377;SDS011;51982;51.042;13.806;2023-02-15T04:04:31;23.02;;;9.15;;
65377;SDS011;51982;51.042;13.806;2023-02-15T04:07:01;26.42;;;9.85;;
65377;SDS011;51982;51.042;13.806;2023-02-15T04:09:28;20.17;;;9.45;;
65377;SDS011;51982;51.042;13.806;2023-02-15T04:12:12;24.90;;;9.52;;
65377;SDS011;51982;51.042;13.806;2023-02-15T04:14:37;25.83;;;10.20;;
65377;SDS011;51982;51.042;13.806;2023-02-15T04:17:21;21.73;;;9.43;;
65377;SDS011;51982;51.042;13.806;2023-02-15T04:19:46;24.48;;;9.70;;
65377;SDS011;51982;51.042;13.806;2023-02-15T04:22:30;22.17;;;9.90;;
65377;SDS011;51982;51.042;13.806;2023-02-15T04:25:14;24.15;;;10.00;;
65377;SDS011;51982;51.042;13.806;2023-02-15T04:27:57;22.15;;;10.10;;
65377;SDS011;51982;51.042;13.806;2023-02-15T04:30:23;22.40;;;10.40;;
65377;SDS011;51982;51.042;13.806;2023-02-15T04:32:50;27.95;;;11.10;;
65377;SDS011;51982;51.042;13.806;2023-02-15T04:35:16;21.55;;;9.43;;
65377;SDS011;51982;51.042;13.806;2023-02-15T04:37:41;23.38;;;9.85;;
65377;SDS011;51982;51.042;13.806;2023-02-15T04:40:08;22.55;;;10.13;;
65377;SDS011;51982;51.042;13.806;2023-02-15T04:42:35;24.08;;;9.52;;
65377;SDS011;51982;51.042;13.806;2023-02-15T04:45:01;25.13;;;9.52;;
65377;SDS011;51982;51.042;13.806;2023-02-15T04:47:26;22.63;;;9.43;;
65377;SDS011;51982;51.042;13.806;2023-02-15T04:49:51;23.15;;;9.85;;
65377;SDS011;51982;51.042;13.806;2023-02-15T04:52:17;23.73;;;10.07;;
65377;SDS011;51982;51.042;13.806;2023-02-15T04:54:42;24.55;;;10.20;;
65377;SDS011;51982;51.042;13.806;2023-02-15T04:57:08;25.02;;;10.10;;
65377;SDS011;51982;51.042;13.806;2023-02-15T04:59:33;23.60;;;9.38;;
65377;SDS011;51982;51.042;13.806;2023-02-15T05:01:58;21.70;;;9.90;;
65377;SDS011;51982;51.042;13.806;2023-02-15T05:04:24;21.48;;;9.25;;
65377;SDS011;51982;51.042;13.806;2023-02-15T05:06:49;23.75;;;9.70;;
65377;SDS011;51982;51.042;13.806;2023-02-15T05:09:14;24.25;;;9.30;;
65377;SDS011;51982;51.042;13.806;2023-02-15T05:11:41;20.85;;;8.85;;
65377;SDS011;51982;51.042;13.806;2023-02-15T05:14:06;23.08;;;9.23;;
65377;SDS011;51982;51.042;13.806;2023-02-15T05:16:31;23.13;;;8.82;;
65377;SDS011;51982;51.042;13.806;2023-02-15T05:18:56;24.23;;;9.55;;
65377;SDS011;51982;51.042;13.806;2023-02-15T05:21:22;20.52;;;8.45;;
65377;SDS011;51982;51.042;13.806;2023-02-15T05:23:47;21.83;;;8.30;;
65377;SDS011;51982;51.042;13.806;2023-02-15T05:26:17;19.40;;;8.27;;
65377;SDS011;51982;51.042;13.806;2023-02-15T05:29:03;20.50;;;8.75;;
65377;SDS011;51982;51.042;13.806;2023-02-15T05:31:29;16.90;;;8.38;;
65377;SDS011;51982;51.042;13.806;2023-02-15T05:33:55;22.88;;;8.30;;
65377;SDS011;51982;51.042;13.806;2023-02-15T05:36:20;17.65;;;7.75;;
65377;SDS011;51982;51.042;13.806;2023-02-15T05:38:46;17.17;;;7.47;;
65377;SDS011;51982;51.042;13.806;2023-02-15T05:41:11;18.48;;;7.55;;
65377;SDS011;51982;51.042;13.806;2023-02-15T05:43:36;18.63;;;8.40;;
65377;SDS011;51982;51.042;13.806;2023-02-15T05:46:02;18.35;;;7.55;;
65377;SDS011;51982;51.042;13.806;2023-02-15T05:48:29;17.73;;;7.38;;
65377;SDS011;51982;51.042;13.806;2023-02-15T05:50:58;17.30;;;7.47;;
65377;SDS011;51982;51.042;13.806;2023-02-15T05:53:25;23.48;;;9.35;;
65377;SDS011;51982;51.042;13.806;2023-02-15T05:55:51;24.48;;;9.52;;
65377;SDS011;51982;51.042;13.806;2023-02-15T05:58:16;17.63;;;7.85;;
65377;SDS011;51982;51.042;13.806;2023-02-15T06:00:42;19.75;;;7.70;;
65377;SDS011;51982;51.042;13.806;2023-02-15T06:03:07;16.42;;;6.97;;
65377;SDS011;51982;51.042;13.806;2023-02-15T06:05:32;15.02;;;6.70;;
65377;SDS011;51982;51.042;13.806;2023-02-15T06:07:57;20.98;;;8.50;;
65377;SDS011;51982;51.042;13.806;2023-02-15T06:10:22;20.02;;;8.07;;
65377;SDS011;51982;51.042;13.806;2023-02-15T06:12:48;16.55;;;7.57;;
65377;SDS011;51982;51.042;13.806;2023-02-15T06:15:13;18.25;;;7.15;;
65377;SDS011;51982;51.042;13.806;2023-02-15T06:17:40;19.15;;;7.03;;
65377;SDS011;51982;51.042;13.806;2023-02-15T06:20:07;15.30;;;6.72;;
65377;SDS011;51982;51.042;13.806;2023-02-15T06:22:33;17.02;;;7.43;;
65377;SDS011;51982;51.042;13.806;2023-02-15T06:24:58;20.08;;;7.68;;
65377;SDS011;51982;51.042;13.806;2023-02-15T06:27:23;17.50;;;7.97;;
65377;SDS011;51982;51.042;13.806;2023-02-15T06:29:48;16.20;;;6.60;;
65377;SDS011;51982;51.042;13.806;2023-02-15T06:32:14;19.05;;;7.43;;
65377;SDS011;51982;51.042;13.806;2023-02-15T06:34:39;13.70;;;6.28;;
65377;SDS011;51982;51.042;13.806;2023-02-15T06:37:04;16.83;;;6.65;;
65377;SDS011;51982;51.042;13.806;2023-02-15T06:39:29;15.98;;;7.07;;
65377;SDS011;51982;51.042;13.806;2023-02-15T06:41:54;13.85;;;6.57;;
65377;SDS011;51982;51.042;13.806;2023-02-15T06:44:20;15.05;;;6.07;;
65377;SDS011;51982;51.042;13.806;2023-02-15T06:46:45;13.93;;;6.10;;
65377;SDS011;51982;51.042;13.806;2023-02-15T06:49:10;21.05;;;7.38;;
65377;SDS011;51982;51.042;13.806;2023-02-15T06:51:36;16.77;;;7.30;;
65377;SDS011;51982;51.042;13.806;2023-02-15T06:54:01;15.48;;;6.22;;
65377;SDS011;51982;51.042;13.806;2023-02-15T06:56:26;12.93;;;6.22;;
65377;SDS011;51982;51.042;13.806;2023-02-15T06:58:51;15.73;;;6.68;;
65377;SDS011;51982;51.042;13.806;2023-02-15T07:01:20;17.15;;;6.68;;
65377;SDS011;51982;51.042;13.806;2023-02-15T07:03:45;12.75;;;5.80;;
65377;SDS011;51982;51.042;13.806;2023-02-15T07:06:14;14.23;;;5.93;;
65377;SDS011;51982;51.042;13.806;2023-02-15T07:08:39;7.47;;;3.92;;
65377;SDS011;51982;51.042;13.806;2023-02-15T07:11:05;13.27;;;5.90;;
65377;SDS011;51982;51.042;13.806;2023-02-15T07:13:50;13.18;;;6.53;;
65377;SDS011;51982;51.042;13.806;2023-02-15T07:16:17;12.70;;;6.03;;
65377;SDS011;51982;51.042;13.806;2023-02-15T07:18:42;13.82;;;6.03;;
65377;SDS011;51982;51.042;13.806;2023-02-15T07:21:07;16.35;;;6.57;;
65377;SDS011;51982;51.042;13.806;2023-02-15T07:23:33;11.02;;;6.13;;
65377;SDS011;51982;51.042;13.806;2023-02-15T07:26:02;12.52;;;5.85;;
65377;SDS011;51982;51.042;13.806;2023-02-15T07:28:29;15.32;;;6.70;;
65377;SDS011;51982;51.042;13.806;2023-02-15T07:30:55;15.52;;;6.13;;
65377;SDS011;51982;51.042;13.806;2023-02-15T07:33:20;11.98;;;5.18;;
65377;SDS011;51982;51.042;13.806;2023-02-15T07:38:14;11.88;;;5.88;;
65377;SDS011;51982;51.042;13.806;2023-02-15T07:40:39;13.48;;;6.00;;
65377;SDS011;51982;51.042;13.806;2023-02-15T07:43:05;14.75;;;5.97;;
65377;SDS011;51982;51.042;13.806;2023-02-15T07:45:30;13.70;;;5.65;;
65377;SDS011;51982;51.042;13.806;2023-02-15T07:47:55;10.95;;;5.40;;
65377;SDS011;51982;51.042;13.806;2023-02-15T07:50:20;11.93;;;5.05;;
65377;SDS011;51982;51.042;13.806;2023-02-15T07:52:45;13.70;;;4.80;;
65377;SDS011;51982;51.042;13.806;2023-02-15T07:55:11;12.15;;;5.15;;
65377;SDS011;51982;51.042;13.806;2023-02-15T07:57:38;12.05;;;5.50;;
65377;SDS011;51982;51.042;13.806;2023-02-15T08:00:06;12.07;;;5.07;;
65377;SDS011;51982;51.042;13.806;2023-02-15T08:02:32;14.43;;;5.53;;
65377;SDS011;51982;51.042;13.806;2023-02-15T08:04:58;12.07;;;4.85;;
65377;SDS011;51982;51.042;13.806;2023-02-15T08:07:24;11.32;;;5.20;;
65377;SDS011;51982;51.042;13.806;2023-02-15T08:09:49;11.88;;;5.10;;
65377;SDS011;51982;51.042;13.806;2023-02-15T08:12:14;12.32;;;5.57;;
65377;SDS011;51982;51.042;13.806;2023-02-15T08:14:39;9.45;;;4.68;;
65377;SDS011;51982;51.042;13.806;2023-02-15T08:17:04;10.93;;;5.53;;
65377;SDS011;51982;51.042;13.806;2023-02-15T08:19:30;12.23;;;5.30;;
65377;SDS011;51982;51.042;13.806;2023-02-15T08:21:58;11.60;;;5.55;;
65377;SDS011;51982;51.042;13.806;2023-02-15T08:24:31;11.20;;;4.97;;
65377;SDS011;51982;51.042;13.806;2023-02-15T08:27:04;10.30;;;5.25;;
65377;SDS011;51982;51.042;13.806;2023-02-15T08:29:30;10.02;;;5.25;;
65377;SDS011;51982;51.042;13.806;2023-02-15T08:31:56;8.40;;;4.00;;
65377;SDS011;51982;51.042;13.806;2023-02-15T08:34:26;16.45;;;6.05;;
65377;SDS011;51982;51.042;13.806;2023-02-15T08:36:53;11.52;;;5.28;;
65377;SDS011;51982;51.042;13.806;2023-02-15T08:39:19;9.88;;;5.30;;
65377;SDS011;51982;51.042;13.806;2023-02-15T08:41:45;11.57;;;5.25;;
65377;SDS011;51982;51.042;13.806;2023-02-15T08:44:11;11.98;;;4.97;;
65377;SDS011;51982;51.042;13.806;2023-02-15T08:46:37;12.88;;;4.68;;
65377;SDS011;51982;51.042;13.806;2023-02-15T08:49:04;10.80;;;5.38;;
65377;SDS011;51982;51.042;13.806;2023-02-15T08:51:31;11.38;;;4.97;;
65377;SDS011;51982;51.042;13.806;2023-02-15T08:53:59;17.73;;;5.35;;
65377;SDS011;51982;51.042;13.806;2023-02-15T08:56:27;11.60;;;5.07;;
65377;SDS011;51982;51.042;13.806;2023-02-15T08:58:54;12.18;;;4.85;;
65377;SDS011;51982;51.042;13.806;2023-02-15T09:01:21;13.77;;;5.40;;
65377;SDS011;51982;51.042;13.806;2023-02-15T09:03:49;12.00;;;5.25;;
65377;SDS011;51982;51.042;13.806;2023-02-15T09:06:18;13.65;;;6.35;;
65377;SDS011;51982;51.042;13.806;2023-02-15T09:08:44;12.15;;;4.97;;
65377;SDS011;51982;51.042;13.806;2023-02-15T09:13:42;8.15;;;3.83;;
65377;SDS011;51982;51.042;13.806;2023-02-15T09:16:08;10.55;;;5.15;;
65377;SDS011;51982;51.042;13.806;2023-02-15T09:18:36;15.70;;;6.00;;
65377;SDS011;51982;51.042;13.806;2023-02-15T09:21:06;15.90;;;8.30;;
65377;SDS011;51982;51.042;13.806;2023-02-15T09:23:33;16.35;;;7.32;;
65377;SDS011;51982;51.042;13.806;2023-02-15T09:26:01;17.55;;;6.05;;
65377;SDS011;51982;51.042;13.806;2023-02-15T09:28:34;25.55;;;12.15;;
65377;SDS011;51982;51.042;13.806;2023-02-15T09:31:13;16.30;;;9.07;;
65377;SDS011;51982;51.042;13.806;2023-02-15T09:33:41;14.80;;;6.15;;
65377;SDS011;51982;51.042;13.806;2023-02-15T09:38:39;10.48;;;4.70;;
65377;SDS011;51982;51.042;13.806;2023-02-15T09:41:30;12.75;;;5.05;;
65377;SDS011;51982;51.042;13.806;2023-02-15T09:44:48;8.35;;;4.35;;
65377;SDS011;51982;51.042;13.806;2023-02-15T09:47:33;21.15;;;9.27;;
65377;SDS011;51982;51.042;13.806;2023-02-15T09:50:28;22.75;;;11.02;;
65377;SDS011;51982;51.042;13.806;2023-02-15T09:59:07;12.25;;;5.45;;
65377;SDS011;51982;51.042;13.806;2023-02-15T10:01:49;12.77;;;5.57;;
65377;SDS011;51982;51.042;13.806;2023-02-15T10:04:35;15.75;;;5.82;;
65377;SDS011;51982;51.042;13.806;2023-02-15T10:09:48;13.60;;;5.30;;
65377;SDS011;51982;51.042;13.806;2023-02-15T10:12:39;16.52;;;7.03;;
65377;SDS011;51982;51.042;13.806;2023-02-15T10:18:23;14.13;;;;;
65377;SDS011;51982;51.042;13.806;2023-02-15T10:26:47;9.52;;;4.18;;
65377;SDS011;51982;51.042;13.806;2023-02-15T10:29:17;18.40;;;7.68;;
65377;SDS011;51982;51.042;13.806;2023-02-15T10:32:13;17.27;;;7.85;;
65377;SDS011;51982;51.042;13.806;2023-02-15T10:35:09;16.13;;;7.28;;
65377;SDS011;51982;51.042;13.806;2023-02-15T10:37:58;13.75;;;6.03;;
65377;SDS011;51982;51.042;13.806;2023-02-15T10:40:29;7.15;;;3.63;;
65377;SDS011;51982;51.042;13.806;2023-02-15T10:43:20;11.40;;;5.53;;
65377;SDS011;51982;51.042;13.806;2023-02-15T10:54:27;18.05;;;6.32;;
65377;SDS011;51982;51.042;13.806;2023-02-15T11:00:03;15.95;;;6.72;;
65377;SDS011;51982;51.042;13.806;2023-02-15T11:02:54;14.52;;;6.35;;
65377;SDS011;51982;51.042;13.806;2023-02-15T11:05:39;13.95;;;6.97;;
65377;SDS011;51982;51.042;13.806;2023-02-15T11:08:09;14.52;;;6.70;;
65377;SDS011;51982;51.042;13.806;2023-02-15T11:10:37;17.20;;;6.85;;
65377;SDS011;51982;51.042;13.806;2023-02-15T11:13:25;14.75;;;7.50;;
65377;SDS011;51982;51.042;13.806;2023-02-15T11:18:30;13.45;;;6.32;;
65377;SDS011;51982;51.042;13.806;2023-02-15T11:24:13;18.02;;;7.22;;
65377;SDS011;51982;51.042;13.806;2023-02-15T11:26:48;14.13;;;6.93;;
65377;SDS011;51982;51.042;13.806;2023-02-15T11:32:23;14.20;;;5.80;;
65377;SDS011;51982;51.042;13.806;2023-02-15T11:34:58;11.85;;;6.28;;
65377;SDS011;51982;51.042;13.806;2023-02-15T11:37:36;13.85;;;6.47;;
65377;SDS011;51982;51.042;13.806;2023-02-15T11:40:15;11.90;;;5.57;;
65377;SDS011;51982;51.042;13.806;2023-02-15T11:42:47;13.68;;;6.82;;
65377;SDS011;51982;51.042;13.806;2023-02-15T11:47:49;15.13;;;6.57;;
65377;SDS011;51982;51.042;13.806;2023-02-15T11:50:15;12.50;;;6.53;;
65377;SDS011;51982;51.042;13.806;2023-02-15T11:52:43;18.20;;;6.78;;
65377;SDS011;51982;51.042;13.806;2023-02-15T11:55:18;13.48;;;6.75;;
65377;SDS011;51982;51.042;13.806;2023-02-15T11:57:48;13.27;;;6.75;;
65377;SDS011;51982;51.042;13.806;2023-02-15T12:00:42;15.43;;;6.70;;
65377;SDS011;51982;51.042;13.806;2023-02-15T12:03:24;15.85;;;6.80;;
65377;SDS011;51982;51.042;13.806;2023-02-15T12:06:23;10.82;;;6.57;;
65377;SDS011;51982;51.042;13.806;2023-02-15T12:11:44;15.02;;;6.65;;
65377;SDS011;51982;51.042;13.806;2023-02-15T12:14:10;13.43;;;6.43;;
65377;SDS011;51982;51.042;13.806;2023-02-15T12:19:10;16.65;;;6.65;;
65377;SDS011;51982;51.042;13.806;2023-02-15T12:21:49;14.73;;;6.57;;
65377;SDS011;51982;51.042;13.806;2023-02-15T12:24:25;14.63;;;7.05;;
65377;SDS011;51982;51.042;13.806;2023-02-15T12:26:56;14.70;;;7.13;;
65377;SDS011;51982;51.042;13.806;2023-02-15T12:29:25;11.85;;;6.72;;
65377;SDS011;51982;51.042;13.806;2023-02-15T12:31:55;15.27;;;6.75;;
65377;SDS011;51982;51.042;13.806;2023-02-15T12:34:22;11.00;;;5.85;;
65377;SDS011;51982;51.042;13.806;2023-02-15T12:36:54;14.05;;;6.93;;
65377;SDS011;51982;51.042;13.806;2023-02-15T12:39:26;15.82;;;7.00;;
65377;SDS011;51982;51.042;13.806;2023-02-15T12:44:52;14.77;;;6.80;;
65377;SDS011;51982;51.042;13.806;2023-02-15T12:47:20;11.95;;;6.40;;
65377;SDS011;51982;51.042;13.806;2023-02-15T12:52:36;17.25;;;7.47;;
65377;SDS011;51982;51.042;13.806;2023-02-15T12:55:18;15.77;;;7.32;;
65377;SDS011;51982;51.042;13.806;2023-02-15T12:57:45;16.08;;;6.65;;
65377;SDS011;51982;51.042;13.806;2023-02-15T13:02:47;17.58;;;7.13;;
65377;SDS011;51982;51.042;13.806;2023-02-15T13:05:20;14.27;;;7.03;;
65377;SDS011;51982;51.042;13.806;2023-02-15T13:08:01;15.77;;;7.07;;
65377;SDS011;51982;51.042;13.806;2023-02-15T13:10:35;16.33;;;7.35;;
65377;SDS011;51982;51.042;13.806;2023-02-15T13:13:02;17.13;;;7.38;;
65377;SDS011;51982;51.042;13.806;2023-02-15T13:15:36;16.20;;;7.82;;
65377;SDS011;51982;51.042;13.806;2023-02-15T13:18:04;15.20;;;7.85;;
65377;SDS011;51982;51.042;13.806;2023-02-15T13:20:35;17.20;;;7.32;;
65377;SDS011;51982;51.042;13.806;2023-02-15T13:23:03;15.40;;;7.35;;
65377;SDS011;51982;51.042;13.806;2023-02-15T13:25:44;19.77;;;7.95;;
65377;SDS011;51982;51.042;13.806;2023-02-15T13:28:16;17.58;;;8.25;;
65377;SDS011;51982;51.042;13.806;2023-02-15T13:30:45;15.40;;;7.50;;
65377;SDS011;51982;51.042;13.806;2023-02-15T13:33:15;18.55;;;7.85;;
65377;SDS011;51982;51.042;13.806;2023-02-15T13:35:43;16.45;;;7.63;;
65377;SDS011;51982;51.042;13.806;2023-02-15T13:38:22;14.75;;;7.28;;
65377;SDS011;51982;51.042;13.806;2023-02-15T13:41:01;15.68;;;7.28;;
65377;SDS011;51982;51.042;13.806;2023-02-15T13:43:47;16.60;;;8.02;;
65377;SDS011;51982;51.042;13.806;2023-02-15T13:46:29;15.75;;;7.25;;
65377;SDS011;51982;51.042;13.806;2023-02-15T13:49:18;15.23;;;7.57;;
65377;SDS011;51982;51.042;13.806;2023-02-15T13:51:58;15.27;;;7.82;;
65377;SDS011;51982;51.042;13.806;2023-02-15T13:54:48;15.93;;;7.75;;
65377;SDS011;51982;51.042;13.806;2023-02-15T14:00:42;16.52;;;7.47;;
65377;SDS011;51982;51.042;13.806;2023-02-15T14:03:26;13.75;;;7.50;;
65377;SDS011;51982;51.042;13.806;2023-02-15T14:08:49;16.05;;;7.80;;
65377;SDS011;51982;51.042;13.806;2023-02-15T14:11:32;16.67;;;7.97;;
65377;SDS011;51982;51.042;13.806;2023-02-15T14:14:31;17.08;;;7.88;;
65377;SDS011;51982;51.042;13.806;2023-02-15T14:17:12;19.05;;;8.48;;
65377;SDS011;51982;51.042;13.806;2023-02-15T14:19:47;16.30;;;8.20;;
65377;SDS011;51982;51.042;13.806;2023-02-15T14:22:25;22.67;;;8.93;;
65377;SDS011;51982;51.042;13.806;2023-02-15T14:27:56;17.55;;;7.93;;
65377;SDS011;51982;51.042;13.806;2023-02-15T14:30:43;21.55;;;8.75;;
65377;SDS011;51982;51.042;13.806;2023-02-15T14:33:23;19.23;;;9.30;;
65377;SDS011;51982;51.042;13.806;2023-02-15T14:35:50;18.75;;;8.40;;
65377;SDS011;51982;51.042;13.806;2023-02-15T14:38:28;18.08;;;9.05;;
65377;SDS011;51982;51.042;13.806;2023-02-15T14:40:59;18.30;;;9.18;;
65377;SDS011;51982;51.042;13.806;2023-02-15T14:43:47;21.42;;;9.68;;
65377;SDS011;51982;51.042;13.806;2023-02-15T14:46:49;20.90;;;9.85;;
65377;SDS011;51982;51.042;13.806;2023-02-15T14:49:22;22.30;;;9.98;;
65377;SDS011;51982;51.042;13.806;2023-02-15T14:56:43;23.88;;;11.23;;
65377;SDS011;51982;51.042;13.806;2023-02-15T14:59:17;22.60;;;10.18;;
65377;SDS011;51982;51.042;13.806;2023-02-15T15:02:29;23.58;;;10.52;;
65377;SDS011;51982;51.042;13.806;2023-02-15T15:04:37;20.70;;;10.30;;
65377;SDS011;51982;51.042;13.806;2023-02-15T15:07:09;24.48;;;11.43;;
65377;SDS011;51982;51.042;13.806;2023-02-15T15:09:43;25.10;;;11.07;;
65377;SDS011;51982;51.042;13.806;2023-02-15T15:14:45;24.55;;;10.70;;
65377;SDS011;51982;51.042;13.806;2023-02-15T15:17:13;26.27;;;11.98;;
65377;SDS011;51982;51.042;13.806;2023-02-15T15:25:44;24.38;;;10.68;;
65377;SDS011;51982;51.042;13.806;2023-02-15T15:28:57;26.77;;;10.93;;
65377;SDS011;51982;51.042;13.806;2023-02-15T15:31:17;28.45;;;11.07;;
65377;SDS011;51982;51.042;13.806;2023-02-15T15:34:04;22.77;;;10.65;;
65377;SDS011;51982;51.042;13.806;2023-02-15T15:39:55;24.83;;;10.43;;
65377;SDS011;51982;51.042;13.806;2023-02-15T15:48:02;25.00;;;10.18;;
65377;SDS011;51982;51.042;13.806;2023-02-15T15:50:41;22.05;;;10.13;;
65377;SDS011;51982;51.042;13.806;2023-02-15T15:53:10;24.90;;;10.90;;
65377;SDS011;51982;51.042;13.806;2023-02-15T15:55:45;22.05;;;10.38;;
65377;SDS011;51982;51.042;13.806;2023-02-15T15:58:14;24.80;;;10.85;;
65377;SDS011;51982;51.042;13.806;2023-02-15T16:03:16;20.10;;;10.13;;
65377;SDS011;51982;51.042;13.806;2023-02-15T16:05:46;23.42;;;10.90;;
65377;SDS011;51982;51.042;13.806;2023-02-15T16:08:13;24.58;;;10.48;;
65377;SDS011;51982;51.042;13.806;2023-02-15T16:10:39;22.27;;;10.32;;
65377;SDS011;51982;51.042;13.806;2023-02-15T16:13:05;23.90;;;10.82;;
65377;SDS011;51982;51.042;13.806;2023-02-15T16:18:02;22.10;;;10.32;;
65377;SDS011;51982;51.042;13.806;2023-02-15T16:20:29;24.10;;;11.05;;
65377;SDS011;51982;51.042;13.806;2023-02-15T16:23:16;24.63;;;11.23;;
65377;SDS011;51982;51.042;13.806;2023-02-15T16:28:51;21.83;;;9.90;;
65377;SDS011;51982;51.042;13.806;2023-02-15T16:31:21;23.77;;;10.98;;
65377;SDS011;51982;51.042;13.806;2023-02-15T16:33:47;27.58;;;12.13;;
65377;SDS011;51982;51.042;13.806;2023-02-15T16:36:23;24.92;;;10.73;;
65377;SDS011;51982;51.042;13.806;2023-02-15T16:41:16;27.40;;;11.13;;
65377;SDS011;51982;51.042;13.806;2023-02-15T16:43:46;20.65;;;10.05;;
65377;SDS011;51982;51.042;13.806;2023-02-15T16:46:24;25.25;;;10.60;;
65377;SDS011;51982;51.042;13.806;2023-02-15T16:48:52;21.85;;;10.07;;
65377;SDS011;51982;51.042;13.806;2023-02-15T16:51:25;23.65;;;10.80;;
65377;SDS011;51982;51.042;13.806;2023-02-15T16:53:53;25.88;;;11.52;;